Time;durP1;ratioP1;P1;durP2;ratioP2;P2;SDS_P1;SDS_P2;PMS_P1;PMS_P2;Temp;Humidity;BMP_temperature;BMP_pressure;BME280_temperature;BME280_humidity;BME280_pressure;Samples;Min_cycle;Max_cycle;Signal;HPM_P1;HPM_P2
2022/05/22 00:01:54;;;;;;;4.43;2.47;;;;;;;;;;5006950;28;20428;-82
2022/05/22 00:04:20;;;;;;;2.83;2.30;;;;;;;;;;5006193;28;20404;-82
2022/05/22 00:06:46;;;;;;;3.63;2.13;;;;;;;;;;5005608;28;20424;-82
2022/05/22 00:09:13;;;;;;;4.00;2.27;;;;;;;;;;5007955;28;20508;-82
2022/05/22 00:11:39;;;;;;;4.10;3.30;;;;;;;;;;5005524;28;20413;-82
2022/05/22 00:14:05;;;;;;;3.60;2.80;;;;;;;;;;4999387;28;20455;-81
2022/05/22 00:16:37;;;;;;;4.03;2.50;;;;;;;;;;4997511;28;20482;-81
2022/05/22 00:19:07;;;;;;;9.23;2.70;;;;;;;;;;4998648;28;20447;-81
2022/05/22 00:21:35;;;;;;;5.63;2.47;;;;;;;;;;4999239;28;20419;-82
2022/05/22 00:24:01;;;;;;;3.67;2.57;;;;;;;;;;4997874;28;20408;-82
2022/05/22 00:26:27;;;;;;;6.17;2.63;;;;;;;;;;4999878;28;20432;-82
2022/05/22 00:28:53;;;;;;;3.83;2.50;;;;;;;;;;5000830;28;20409;-82
2022/05/22 00:31:19;;;;;;;4.93;2.60;;;;;;;;;;4999888;28;20404;-82
2022/05/22 00:33:45;;;;;;;2.90;2.20;;;;;;;;;;4997288;28;20459;-82
2022/05/22 00:36:11;;;;;;;5.50;2.40;;;;;;;;;;4997310;28;20952;-82
2022/05/22 00:38:38;;;;;;;4.60;2.23;;;;;;;;;;4999741;28;20420;-82
2022/05/22 00:41:04;;;;;;;4.03;2.53;;;;;;;;;;4998914;28;20805;-82
2022/05/22 00:43:32;;;;;;;4.10;2.73;;;;;;;;;;4999259;28;20404;-82
2022/05/22 00:45:58;;;;;;;3.93;2.70;;;;;;;;;;5000120;28;20439;-81
2022/05/22 00:48:25;;;;;;;4.60;3.10;;;;;;;;;;4999744;28;20784;-82
2022/05/22 00:50:53;;;;;;;4.67;3.37;;;;;;;;;;5006826;28;20422;-81
2022/05/22 00:53:22;;;;;;;5.50;3.27;;;;;;;;;;5009821;28;20460;-82
2022/05/22 00:55:48;;;;;;;5.80;3.50;;;;;;;;;;5010524;28;20400;-82
2022/05/22 00:58:16;;;;;;;7.70;4.20;;;;;;;;;;5011136;28;20412;-83
2022/05/22 01:00:42;;;;;;;5.80;4.13;;;;;;;;;;5009814;28;20447;-82
2022/05/22 01:03:28;;;;;;;6.00;3.47;;;;;;;;;;5011189;28;20419;-82
2022/05/22 01:05:54;;;;;;;9.33;4.00;;;;;;;;;;5008821;28;20424;-82
2022/05/22 01:08:21;;;;;;;5.20;4.13;;;;;;;;;;5006121;28;20408;-81
2022/05/22 01:10:48;;;;;;;7.90;3.50;;;;;;;;;;5006243;28;20889;-83
2022/05/22 01:13:16;;;;;;;5.70;3.87;;;;;;;;;;5006191;28;20451;-82
2022/05/22 01:15:43;;;;;;;8.20;3.33;;;;;;;;;;5005417;28;20408;-82
2022/05/22 01:18:10;;;;;;;4.70;3.20;;;;;;;;;;5006152;28;20416;-82
2022/05/22 01:20:36;;;;;;;4.20;3.40;;;;;;;;;;5005331;28;20412;-83
2022/05/22 01:23:02;;;;;;;4.60;3.17;;;;;;;;;;5005972;28;20405;-82
2022/05/22 01:25:28;;;;;;;4.57;2.93;;;;;;;;;;5005769;28;20404;-82
2022/05/22 01:27:55;;;;;;;7.83;4.27;;;;;;;;;;5005356;28;20889;-82
2022/05/22 01:30:24;;;;;;;3.20;2.67;;;;;;;;;;5007607;28;20746;-82
2022/05/22 01:32:50;;;;;;;7.20;3.77;;;;;;;;;;5004396;28;20451;-82
2022/05/22 01:35:20;;;;;;;3.73;3.13;;;;;;;;;;5005207;28;20392;-80
2022/05/22 01:37:48;;;;;;;5.17;2.63;;;;;;;;;;5004709;28;20451;-82
2022/05/22 01:40:14;;;;;;;3.87;2.80;;;;;;;;;;5005911;28;20423;-83
2022/05/22 01:42:41;;;;;;;5.20;3.10;;;;;;;;;;5014771;28;20434;-82
2022/05/22 01:45:07;;;;;;;5.37;3.40;;;;;;;;;;5024846;28;20438;-82
2022/05/22 01:47:34;;;;;;;4.07;2.60;;;;;;;;;;5024576;28;20416;-82
2022/05/22 01:50:00;;;;;;;5.03;3.87;;;;;;;;;;5025001;28;20407;-82
2022/05/22 01:52:26;;;;;;;11.07;2.83;;;;;;;;;;5025006;28;20911;-82
2022/05/22 01:54:52;;;;;;;4.33;2.80;;;;;;;;;;5024684;28;20481;-82
2022/05/22 01:57:19;;;;;;;8.13;2.60;;;;;;;;;;5024896;28;20419;-82
2022/05/22 01:59:45;;;;;;;24.77;15.47;;;;;;;;;;5009598;28;20422;-83
2022/05/22 02:02:11;;;;;;;3.77;3.10;;;;;;;;;;5029341;28;20414;-82
2022/05/22 02:04:37;;;;;;;5.60;2.60;;;;;;;;;;5028800;28;20429;-82
2022/05/22 02:09:48;;;;;;;4.77;2.90;;;;;;;;;;5028957;28;20407;-82
2022/05/22 02:12:14;;;;;;;12.43;3.20;;;;;;;;;;5028739;28;20403;-83
2022/05/22 02:14:40;;;;;;;4.10;2.40;;;;;;;;;;5028738;28;20451;-82
2022/05/22 02:17:06;;;;;;;5.00;2.30;;;;;;;;;;5028239;28;20434;-82
2022/05/22 02:19:32;;;;;;;4.87;2.70;;;;;;;;;;5028882;28;20771;-82
2022/05/22 02:21:58;;;;;;;6.10;2.70;;;;;;;;;;5028502;28;20403;-82
2022/05/22 02:24:25;;;;;;;5.73;2.33;;;;;;;;;;5027658;28;20411;-82
2022/05/22 02:26:51;;;;;;;6.30;3.40;;;;;;;;;;5029158;28;20430;-82
2022/05/22 02:29:17;;;;;;;2.97;2.50;;;;;;;;;;5032904;28;20434;-82
2022/05/22 02:31:43;;;;;;;5.03;2.47;;;;;;;;;;5029401;28;20411;-81
2022/05/22 02:34:09;;;;;;;3.17;2.60;;;;;;;;;;5027815;28;20890;-82
2022/05/22 02:36:35;;;;;;;3.80;2.63;;;;;;;;;;5027746;28;20450;-83
2022/05/22 02:39:01;;;;;;;6.77;3.03;;;;;;;;;;5028213;28;20471;-82
2022/05/22 02:41:27;;;;;;;4.80;2.93;;;;;;;;;;5028466;28;20569;-83
2022/05/22 02:43:53;;;;;;;4.00;2.80;;;;;;;;;;5028185;28;20470;-82
2022/05/22 02:46:20;;;;;;;7.33;2.80;;;;;;;;;;5028818;28;20435;-82
2022/05/22 02:48:46;;;;;;;6.43;3.13;;;;;;;;;;5028142;28;20411;-82
2022/05/22 02:51:13;;;;;;;7.30;3.40;;;;;;;;;;5027991;28;20416;-82
2022/05/22 02:53:39;;;;;;;4.93;3.13;;;;;;;;;;5028400;28;20542;-82
2022/05/22 02:56:16;;;;;;;6.73;3.10;;;;;;;;;;5028261;28;20486;-83
2022/05/22 02:58:42;;;;;;;3.27;2.60;;;;;;;;;;5027197;28;20469;-83
2022/05/22 03:01:08;;;;;;;5.40;3.57;;;;;;;;;;5027731;28;20435;-82
2022/05/22 03:03:34;;;;;;;4.87;3.00;;;;;;;;;;5028689;28;20472;-82
2022/05/22 03:08:45;;;;;;;4.97;3.20;;;;;;;;;;5027646;28;20386;-82
2022/05/22 03:11:11;;;;;;;4.97;3.10;;;;;;;;;;5026391;28;20403;-82
2022/05/22 03:13:37;;;;;;;5.13;3.80;;;;;;;;;;5027042;28;20505;-83
2022/05/22 03:16:03;;;;;;;5.00;3.63;;;;;;;;;;5028752;28;20502;-82
2022/05/22 03:18:30;;;;;;;5.67;3.60;;;;;;;;;;5026432;28;20910;-82
2022/05/22 03:20:56;;;;;;;4.40;3.57;;;;;;;;;;5028288;28;20490;-82
2022/05/22 03:23:22;;;;;;;6.10;3.40;;;;;;;;;;5029383;28;20395;-82
2022/05/22 03:25:48;;;;;;;7.40;4.20;;;;;;;;;;5028106;28;20407;-83
2022/05/22 03:28:15;;;;;;;6.03;3.43;;;;;;;;;;5027850;28;20471;-81
2022/05/22 03:30:41;;;;;;;3.20;2.60;;;;;;;;;;5026793;28;20400;-82
2022/05/22 03:33:07;;;;;;;5.10;3.27;;;;;;;;;;5028517;28;20454;-82
2022/05/22 03:35:33;;;;;;;5.67;3.13;;;;;;;;;;5027877;28;20392;-82
2022/05/22 03:37:59;;;;;;;4.40;3.30;;;;;;;;;;5027003;28;20426;-82
2022/05/22 03:40:25;;;;;;;5.30;3.40;;;;;;;;;;5026613;28;20399;-83
2022/05/22 03:42:52;;;;;;;9.07;3.80;;;;;;;;;;5026002;28;20454;-82
2022/05/22 03:45:18;;;;;;;7.80;3.30;;;;;;;;;;5026603;28;20403;-83
2022/05/22 03:47:44;;;;;;;4.80;3.70;;;;;;;;;;5026363;28;20494;-82
2022/05/22 03:50:11;;;;;;;4.43;3.43;;;;;;;;;;5026969;28;20514;-82
2022/05/22 03:52:43;;;;;;;4.23;3.70;;;;;;;;;;5026576;28;20454;-82
2022/05/22 03:55:10;;;;;;;5.70;4.73;;;;;;;;;;5024970;28;20434;-83
2022/05/22 03:57:37;;;;;;;5.10;4.53;;;;;;;;;;5017778;28;20419;-81
2022/05/22 04:00:05;;;;;;;8.17;5.40;;;;;;;;;;5018119;28;20415;-82
2022/05/22 04:02:31;;;;;;;5.23;4.73;;;;;;;;;;5018394;28;20404;-82
2022/05/22 04:04:57;;;;;;;4.87;4.27;;;;;;;;;;5018623;28;20467;-81
2022/05/22 04:07:23;;;;;;;8.57;5.40;;;;;;;;;;4998331;28;20871;-82
2022/05/22 04:09:49;;;;;;;7.40;4.03;;;;;;;;;;5021104;28;20414;-82
2022/05/22 04:12:15;;;;;;;5.60;3.53;;;;;;;;;;5018425;28;20407;-82
2022/05/22 04:14:41;;;;;;;5.17;3.80;;;;;;;;;;5016976;28;20869;-81
2022/05/22 04:17:07;;;;;;;4.97;3.80;;;;;;;;;;5017018;28;20788;-82
2022/05/22 04:19:33;;;;;;;4.40;3.70;;;;;;;;;;5017834;28;20429;-81
2022/05/22 04:21:59;;;;;;;7.43;4.20;;;;;;;;;;5000361;28;20411;-80
2022/05/22 04:27:10;;;;;;;5.43;4.30;;;;;;;;;;5017149;28;20426;-81
2022/05/22 04:29:37;;;;;;;5.60;3.67;;;;;;;;;;5019108;28;20406;-82
2022/05/22 04:32:03;;;;;;;5.97;4.30;;;;;;;;;;5025247;28;20402;-82
2022/05/22 04:34:30;;;;;;;5.17;3.60;;;;;;;;;;5031229;28;20477;-82
2022/05/22 04:36:57;;;;;;;10.50;4.17;;;;;;;;;;5108386;23;20466;-83
2022/05/22 04:39:23;;;;;;;4.10;3.70;;;;;;;;;;5058524;28;20406;-82
2022/05/22 04:41:49;;;;;;;6.37;3.80;;;;;;;;;;5058880;28;20413;-82
2022/05/22 04:44:15;;;;;;;5.90;4.07;;;;;;;;;;5058810;28;20409;-80
2022/05/22 04:46:42;;;;;;;5.37;3.90;;;;;;;;;;5058729;28;20414;-80
2022/05/22 04:49:08;;;;;;;5.70;3.57;;;;;;;;;;5058847;28;20430;-84
2022/05/22 04:51:34;;;;;;;4.87;3.60;;;;;;;;;;5058835;28;20399;-83
2022/05/22 04:54:00;;;;;;;5.87;3.30;;;;;;;;;;5058813;28;20445;-82
2022/05/22 04:56:26;;;;;;;5.20;3.67;;;;;;;;;;5041628;28;20414;-84
2022/05/22 04:58:52;;;;;;;4.73;4.13;;;;;;;;;;5058851;28;20391;-83
2022/05/22 05:01:19;;;;;;;5.57;3.47;;;;;;;;;;5058513;28;20402;-80
2022/05/22 05:03:45;;;;;;;4.73;3.60;;;;;;;;;;5041926;28;20395;-81
2022/05/22 05:06:11;;;;;;;7.30;4.97;;;;;;;;;;5058869;28;20398;-84
2022/05/22 05:08:37;;;;;;;5.07;3.93;;;;;;;;;;5058787;28;20501;-83
2022/05/22 05:11:03;;;;;;;4.10;3.40;;;;;;;;;;5058496;28;20413;-84
2022/05/22 05:13:29;;;;;;;6.67;3.70;;;;;;;;;;5058693;28;20439;-82
2022/05/22 05:16:04;;;;;;;5.00;3.80;;;;;;;;;;5041629;28;20478;-82
2022/05/22 05:18:30;;;;;;;5.97;3.73;;;;;;;;;;5058665;28;20405;-84
2022/05/22 05:21:00;;;;;;;6.50;3.60;;;;;;;;;;5058559;28;20391;-82
2022/05/22 05:23:26;;;;;;;5.80;3.27;;;;;;;;;;5058754;28;20422;-82
2022/05/22 05:25:52;;;;;;;7.70;3.53;;;;;;;;;;5041354;28;20401;-84
2022/05/22 05:28:18;;;;;;;4.20;2.97;;;;;;;;;;5058375;28;20430;-84
2022/05/22 05:30:44;;;;;;;5.03;3.70;;;;;;;;;;5058479;28;20397;-83
2022/05/22 05:33:10;;;;;;;4.20;2.70;;;;;;;;;;5057655;28;20460;-82
2022/05/22 05:35:36;;;;;;;5.97;3.33;;;;;;;;;;5041358;28;20449;-84
2022/05/22 05:38:03;;;;;;;4.30;3.00;;;;;;;;;;5040863;28;20458;-81
2022/05/22 05:40:29;;;;;;;4.27;2.77;;;;;;;;;;5058285;28;20386;-84
2022/05/22 05:42:55;;;;;;;5.80;2.83;;;;;;;;;;5058110;28;20462;-83
2022/05/22 05:45:21;;;;;;;8.23;3.33;;;;;;;;;;5058132;28;20407;-82
2022/05/22 05:47:48;;;;;;;4.53;3.10;;;;;;;;;;5056991;28;20445;-81
2022/05/22 05:50:21;;;;;;;6.67;2.60;;;;;;;;;;5056248;28;20406;-82
2022/05/22 05:52:48;;;;;;;6.50;2.67;;;;;;;;;;5039413;28;20391;-81
2022/05/22 05:55:14;;;;;;;4.00;2.60;;;;;;;;;;5057624;28;20421;-82
2022/05/22 05:57:40;;;;;;;12.13;3.30;;;;;;;;;;5057944;28;20430;-84
2022/05/22 06:00:07;;;;;;;3.43;2.70;;;;;;;;;;5057925;28;20415;-84
2022/05/22 06:02:33;;;;;;;2.87;2.03;;;;;;;;;;5057988;28;20394;-82
2022/05/22 06:05:00;;;;;;;3.37;2.20;;;;;;;;;;5058112;28;20393;-83
2022/05/22 06:07:26;;;;;;;3.70;2.50;;;;;;;;;;5040666;28;20473;-84
2022/05/22 06:09:52;;;;;;;6.87;3.57;;;;;;;;;;5058043;28;20414;-83
2022/05/22 06:12:18;;;;;;;3.70;2.40;;;;;;;;;;5057961;28;20415;-81
2022/05/22 06:14:46;;;;;;;4.80;2.30;;;;;;;;;;5057960;28;20454;-84
2022/05/22 06:17:15;;;;;;;4.20;2.30;;;;;;;;;;5057617;28;20426;-83
2022/05/22 06:19:54;;;;;;;5.10;2.23;;;;;;;;;;5056405;28;20410;-81
2022/05/22 06:22:20;;;;;;;5.90;2.33;;;;;;;;;;5057143;28;20429;-80
2022/05/22 06:24:46;;;;;;;2.57;1.80;;;;;;;;;;5055604;28;20784;-83
2022/05/22 06:27:12;;;;;;;4.57;2.23;;;;;;;;;;5049145;28;20449;-83
2022/05/22 06:29:39;;;;;;;3.80;2.13;;;;;;;;;;5048467;28;20442;-83
2022/05/22 06:32:05;;;;;;;3.90;2.10;;;;;;;;;;5031164;28;20481;-83
2022/05/22 06:34:35;;;;;;;2.87;1.80;;;;;;;;;;5048078;28;20460;-84
2022/05/22 06:37:02;;;;;;;3.20;2.10;;;;;;;;;;5047703;28;20445;-84
2022/05/22 06:42:17;;;;;;;5.43;2.00;;;;;;;;;;5048229;28;20424;-84
2022/05/22 06:44:44;;;;;;;2.57;1.77;;;;;;;;;;5047631;28;20917;-84
2022/05/22 06:47:10;;;;;;;3.20;1.93;;;;;;;;;;5051045;28;20418;-85
2022/05/22 06:49:36;;;;;;;9.03;2.30;;;;;;;;;;5051609;28;20414;-84
2022/05/22 06:52:02;;;;;;;5.73;2.07;;;;;;;;;;5051547;28;20409;-84
2022/05/22 06:54:30;;;;;;;3.40;2.13;;;;;;;;;;5049429;28;20458;-84
2022/05/22 06:56:57;;;;;;;4.13;2.13;;;;;;;;;;5049070;28;20422;-84
2022/05/22 06:59:23;;;;;;;4.90;2.30;;;;;;;;;;5048711;28;20410;-84
2022/05/22 07:01:49;;;;;;;4.30;2.13;;;;;;;;;;5048331;28;20399;-85
2022/05/22 07:04:15;;;;;;;6.73;2.40;;;;;;;;;;5046755;28;20712;-84
2022/05/22 07:06:41;;;;;;;4.70;2.13;;;;;;;;;;5044051;28;20450;-85
2022/05/22 07:09:07;;;;;;;6.17;2.67;;;;;;;;;;5044913;28;20869;-84
2022/05/22 07:11:39;;;;;;;3.97;2.70;;;;;;;;;;5027502;28;20426;-84
2022/05/22 07:14:10;;;;;;;5.43;2.60;;;;;;;;;;5043746;28;20461;-86
2022/05/22 07:16:36;;;;;;;2.77;1.70;;;;;;;;;;5042622;28;20457;-86
2022/05/22 07:19:03;;;;;;;2.97;2.03;;;;;;;;;;5042346;28;20395;-85
2022/05/22 07:21:29;;;;;;;3.80;2.47;;;;;;;;;;5030238;28;20793;-84
2022/05/22 07:23:55;;;;;;;5.13;2.27;;;;;;;;;;5051273;28;20403;-84
2022/05/22 07:26:24;;;;;;;3.50;2.00;;;;;;;;;;5051173;28;20453;-84
2022/05/22 07:28:54;;;;;;;3.27;2.10;;;;;;;;;;5051954;28;20453;-83
2022/05/22 07:31:22;;;;;;;4.70;2.27;;;;;;;;;;5053166;28;20406;-84
2022/05/22 07:33:51;;;;;;;6.13;4.13;;;;;;;;;;5051573;28;20446;-84
2022/05/22 07:36:21;;;;;;;8.17;2.20;;;;;;;;;;5051637;28;20456;-84
2022/05/22 07:38:59;;;;;;;3.67;2.00;;;;;;;;;;5032127;28;20433;-84
2022/05/22 07:41:26;;;;;;;5.97;2.70;;;;;;;;;;5050930;28;20410;-85
2022/05/22 07:43:52;;;;;;;3.43;1.80;;;;;;;;;;5032795;28;20403;-84
2022/05/22 07:46:18;;;;;;;2.57;1.80;;;;;;;;;;5050801;28;20494;-84
2022/05/22 07:48:44;;;;;;;3.77;2.23;;;;;;;;;;5050418;28;20410;-85
2022/05/22 07:51:14;;;;;;;2.77;1.80;;;;;;;;;;5051587;28;20410;-83
2022/05/22 07:53:41;;;;;;;4.10;2.10;;;;;;;;;;5056067;28;20466;-84
2022/05/22 07:56:07;;;;;;;3.63;1.70;;;;;;;;;;5050334;28;20472;-85
2022/05/22 07:58:33;;;;;;;4.80;1.70;;;;;;;;;;5050697;28;20395;-84
2022/05/22 08:01:00;;;;;;;5.60;4.00;;;;;;;;;;5049754;28;20413;-84
2022/05/22 08:03:26;;;;;;;5.20;2.10;;;;;;;;;;5049840;28;20406;-84
2022/05/22 08:05:54;;;;;;;3.80;1.70;;;;;;;;;;5049752;28;20417;-84
2022/05/22 08:08:20;;;;;;;6.00;2.33;;;;;;;;;;5050116;28;20972;-84
2022/05/22 08:10:46;;;;;;;3.63;1.67;;;;;;;;;;5050327;28;20434;-85
2022/05/22 08:13:13;;;;;;;3.53;1.50;;;;;;;;;;5050523;28;20468;-85
2022/05/22 08:15:41;;;;;;;4.50;1.63;;;;;;;;;;5050394;28;20406;-84
2022/05/22 08:18:07;;;;;;;2.33;1.20;;;;;;;;;;5055495;28;20466;-83
2022/05/22 08:20:34;;;;;;;2.27;1.33;;;;;;;;;;5038056;28;20410;-83
2022/05/22 08:23:02;;;;;;;4.10;2.20;;;;;;;;;;5038584;28;20413;-83
2022/05/22 08:25:28;;;;;;;5.60;1.97;;;;;;;;;;5041023;28;20403;-84
2022/05/22 08:27:55;;;;;;;2.10;1.20;;;;;;;;;;5024533;28;20449;-84
2022/05/22 08:30:22;;;;;;;8.90;2.00;;;;;;;;;;5048772;28;20445;-84
2022/05/22 08:32:49;;;;;;;2.60;1.67;;;;;;;;;;5049289;28;20481;-84
2022/05/22 08:35:16;;;;;;;3.00;1.80;;;;;;;;;;5049977;28;20535;-84
2022/05/22 08:37:42;;;;;;;3.60;1.73;;;;;;;;;;5049661;28;20442;-84
2022/05/22 08:40:09;;;;;;;3.00;1.70;;;;;;;;;;5032043;28;20403;-84
2022/05/22 08:42:42;;;;;;;4.40;1.70;;;;;;;;;;5049381;28;20398;-84
2022/05/22 08:45:14;;;;;;;4.00;1.50;;;;;;;;;;5049408;28;20457;-84
2022/05/22 08:47:54;;;;;;;4.43;1.53;;;;;;;;;;5048856;28;20429;-83
2022/05/22 08:50:21;;;;;;;2.57;1.37;;;;;;;;;;5048525;28;20412;-83
2022/05/22 08:52:51;;;;;;;3.40;1.67;;;;;;;;;;5049062;28;20478;-84
2022/05/22 08:58:56;;;;;;;2.97;1.80;;;;;;;;;;5032098;28;20458;-84
2022/05/22 09:01:07;;;;;;;3.60;1.70;;;;;;;;;;5038080;28;20417;-83
2022/05/22 09:03:39;;;;;;;2.63;1.47;;;;;;;;;;5035839;28;20403;-82
2022/05/22 09:06:06;;;;;;;2.90;1.93;;;;;;;;;;5038661;28;20394;-83
2022/05/22 09:08:51;;;;;;;3.70;1.83;;;;;;;;;;5040458;28;20482;-83
2022/05/22 09:11:22;;;;;;;2.90;1.47;;;;;;;;;;5041303;28;20402;-84
2022/05/22 09:13:55;;;;;;;4.17;1.97;;;;;;;;;;5039048;28;20454;-84
2022/05/22 09:16:28;;;;;;;2.93;1.80;;;;;;;;;;5042174;28;20513;-84
2022/05/22 09:18:54;;;;;;;4.00;1.77;;;;;;;;;;5041023;28;20406;-84
2022/05/22 09:21:39;;;;;;;3.63;1.80;;;;;;;;;;5025253;28;20402;-84
2022/05/22 09:24:08;;;;;;;2.97;1.40;;;;;;;;;;5029534;28;20462;-83
2022/05/22 09:26:43;;;;;;;2.90;1.67;;;;;;;;;;5055902;28;20426;-84
2022/05/22 09:29:28;;;;;;;2.80;1.60;;;;;;;;;;5052054;28;20402;-85
2022/05/22 09:31:56;;;;;;;3.47;1.80;;;;;;;;;;5048563;28;20410;-84
2022/05/22 09:34:31;;;;;;;6.33;1.80;;;;;;;;;;5047870;28;20450;-85
2022/05/22 09:37:16;;;;;;;2.80;1.47;;;;;;;;;;5047099;28;20455;-84
2022/05/22 09:39:42;;;;;;;2.23;1.70;;;;;;;;;;5047917;28;20398;-84
2022/05/22 09:42:27;;;;;;;4.27;1.83;;;;;;;;;;5048978;28;20505;-84
2022/05/22 09:45:08;;;;;;;4.00;2.00;;;;;;;;;;5054411;28;20403;-84
2022/05/22 09:47:38;;;;;;;3.87;1.70;;;;;;;;;;5057512;28;20425;-85
2022/05/22 09:50:20;;;;;;;2.80;1.80;;;;;;;;;;5031949;28;20482;-85
2022/05/22 09:53:01;;;;;;;4.00;1.87;;;;;;;;;;5049362;28;20484;-84
2022/05/22 09:55:54;;;;;;;5.80;1.70;;;;;;;;;;5048528;28;20418;-84
2022/05/22 09:58:20;;;;;;;3.03;1.70;;;;;;;;;;5044596;28;20436;-84
2022/05/22 10:01:07;;;;;;;4.60;1.77;;;;;;;;;;5049156;28;20394;-84
2022/05/22 10:03:42;;;;;;;2.67;1.67;;;;;;;;;;5030299;28;20418;-84
2022/05/22 10:06:31;;;;;;;2.57;1.70;;;;;;;;;;5048375;28;20410;-83
2022/05/22 10:09:08;;;;;;;2.50;1.70;;;;;;;;;;5048376;28;20403;-84
2022/05/22 10:11:34;;;;;;;2.47;1.67;;;;;;;;;;5048422;28;20968;-84
2022/05/22 10:14:06;;;;;;;6.67;2.20;;;;;;;;;;5029798;28;20458;-85
2022/05/22 10:16:51;;;;;;;2.67;1.47;;;;;;;;;;5048122;28;20422;-84
2022/05/22 10:19:19;;;;;;;4.57;1.97;;;;;;;;;;5047238;28;20422;-83
2022/05/22 10:21:49;;;;;;;2.30;1.77;;;;;;;;;;5052045;28;20402;-84
2022/05/22 10:24:34;;;;;;;5.57;2.20;;;;;;;;;;5052166;28;20402;-85
2022/05/22 10:27:19;;;;;;;3.43;1.70;;;;;;;;;;5050741;28;20424;-86
2022/05/22 10:29:48;;;;;;;3.70;1.40;;;;;;;;;;5051340;28;20402;-83
2022/05/22 10:32:20;;;;;;;2.67;1.70;;;;;;;;;;5051219;28;20457;-83
2022/05/22 10:34:46;;;;;;;3.00;1.80;;;;;;;;;;5050658;28;20476;-84
2022/05/22 10:37:15;;;;;;;3.60;1.70;;;;;;;;;;5077749;23;21407;-82
2022/05/22 10:39:41;;;;;;;4.73;1.87;;;;;;;;;;5047483;28;20430;-81
2022/05/22 10:45:02;;;;;;;2.80;1.50;;;;;;;;;;5029572;28;20467;-81
2022/05/22 10:47:30;;;;;;;3.10;1.70;;;;;;;;;;5029248;28;20411;-81
2022/05/22 10:49:56;;;;;;;3.43;1.40;;;;;;;;;;5029562;28;20971;-81
2022/05/22 10:52:24;;;;;;;3.13;1.70;;;;;;;;;;5028593;28;20427;-81
2022/05/22 10:54:54;;;;;;;4.67;1.70;;;;;;;;;;5028892;28;20458;-81
2022/05/22 10:57:25;;;;;;;3.10;1.20;;;;;;;;;;5008171;28;20521;-82
2022/05/22 10:59:51;;;;;;;3.97;1.43;;;;;;;;;;5008791;28;20454;-81
2022/05/22 11:02:28;;;;;;;2.80;1.40;;;;;;;;;;5027351;28;20404;-83
2022/05/22 11:04:55;;;;;;;2.90;1.37;;;;;;;;;;5029894;28;20411;-82
2022/05/22 11:07:28;;;;;;;2.90;1.33;;;;;;;;;;5030027;28;20500;-82
2022/05/22 11:09:55;;;;;;;3.70;1.30;;;;;;;;;;5030902;28;20411;-82
2022/05/22 11:12:28;;;;;;;2.33;1.40;;;;;;;;;;5032424;28;20427;-80
2022/05/22 11:15:08;;;;;;;6.10;1.50;;;;;;;;;;5034641;28;20454;-81
2022/05/22 11:17:34;;;;;;;3.10;1.30;;;;;;;;;;5012317;28;20522;-83
2022/05/22 11:20:02;;;;;;;2.93;1.47;;;;;;;;;;5028962;28;20415;-82
2022/05/22 11:22:30;;;;;;;2.10;1.40;;;;;;;;;;5029083;28;20399;-82
2022/05/22 11:25:06;;;;;;;3.93;1.47;;;;;;;;;;5028806;28;20415;-82
2022/05/22 11:27:53;;;;;;;2.80;1.20;;;;;;;;;;5028556;28;20423;-82
2022/05/22 11:30:38;;;;;;;2.67;1.30;;;;;;;;;;5032637;28;20392;-81
2022/05/22 11:33:07;;;;;;;3.20;1.57;;;;;;;;;;5029740;28;20406;-82
2022/05/22 11:35:45;;;;;;;3.20;1.53;;;;;;;;;;5011350;28;20482;-82
2022/05/22 11:38:21;;;;;;;3.53;1.27;;;;;;;;;;5027116;28;20439;-82
2022/05/22 11:40:55;;;;;;;2.50;1.50;;;;;;;;;;5026350;28;20985;-82
2022/05/22 11:43:42;;;;;;;3.00;1.67;;;;;;;;;;5024474;28;20395;-82
2022/05/22 11:46:12;;;;;;;3.30;1.23;;;;;;;;;;5023962;28;20770;-83
2022/05/22 11:48:41;;;;;;;3.03;1.10;;;;;;;;;;5022929;28;20431;-81
2022/05/22 11:51:07;;;;;;;3.93;2.10;;;;;;;;;;5021736;28;20399;-81
2022/05/22 11:54:06;;;;;;;2.23;1.20;;;;;;;;;;5022518;28;20454;-82
2022/05/22 11:56:43;;;;;;;3.07;1.57;;;;;;;;;;4980042;28;20506;-83
2022/05/22 11:59:09;;;;;;;2.00;1.20;;;;;;;;;;5023261;28;20473;-83
2022/05/22 12:01:38;;;;;;;2.13;1.10;;;;;;;;;;5024200;28;20414;-83
2022/05/22 12:04:22;;;;;;;2.23;1.20;;;;;;;;;;5024783;28;20403;-82
2022/05/22 12:06:53;;;;;;;2.90;1.20;;;;;;;;;;5026451;28;20410;-81
2022/05/22 12:09:30;;;;;;;3.20;1.40;;;;;;;;;;5024034;28;20735;-82
2022/05/22 12:11:56;;;;;;;4.50;1.60;;;;;;;;;;5025463;28;20462;-82
2022/05/22 12:14:36;;;;;;;4.00;1.40;;;;;;;;;;5025546;28;20928;-81
2022/05/22 12:17:10;;;;;;;3.97;1.40;;;;;;;;;;5025199;28;20427;-81
2022/05/22 12:19:44;;;;;;;4.27;1.53;;;;;;;;;;5025379;28;20467;-81
2022/05/22 12:22:16;;;;;;;3.30;1.30;;;;;;;;;;5029710;28;20411;-80
2022/05/22 12:24:42;;;;;;;5.20;1.47;;;;;;;;;;5020238;28;20920;-81
2022/05/22 12:27:19;;;;;;;2.00;1.50;;;;;;;;;;5020902;28;20423;-81
2022/05/22 12:29:56;;;;;;;2.57;1.30;;;;;;;;;;5020602;28;20438;-81
2022/05/22 12:32:24;;;;;;;2.20;1.40;;;;;;;;;;5015496;28;20395;-80
2022/05/22 12:34:52;;;;;;;1.83;1.13;;;;;;;;;;5015524;28;20454;-80
2022/05/22 12:37:38;;;;;;;3.73;1.37;;;;;;;;;;5016857;28;20470;-81
2022/05/22 12:40:11;;;;;;;6.23;1.53;;;;;;;;;;5018426;28;20431;-81
2022/05/22 12:42:39;;;;;;;2.43;1.43;;;;;;;;;;5019522;28;20392;-81
2022/05/22 12:45:06;;;;;;;3.40;1.63;;;;;;;;;;5022694;28;20480;-82
2022/05/22 12:47:43;;;;;;;2.73;1.40;;;;;;;;;;5022416;28;20431;-82
2022/05/22 12:50:10;;;;;;;3.50;1.13;;;;;;;;;;5019727;28;20486;-81
2022/05/22 12:52:39;;;;;;;2.37;1.20;;;;;;;;;;5020408;28;20445;-80
2022/05/22 12:55:22;;;;;;;3.50;1.40;;;;;;;;;;5021175;28;20822;-81
2022/05/22 12:57:56;;;;;;;2.93;1.20;;;;;;;;;;5023021;28;20434;-81
2022/05/22 13:00:40;;;;;;;2.17;1.30;;;;;;;;;;5022567;28;20404;-82
2022/05/22 13:03:27;;;;;;;4.00;1.30;;;;;;;;;;5005215;28;20495;-81
2022/05/22 13:06:07;;;;;;;3.10;1.60;;;;;;;;;;5023715;28;20916;-81
2022/05/22 13:08:41;;;;;;;3.07;1.20;;;;;;;;;;5024279;28;20427;-81
2022/05/22 13:11:13;;;;;;;2.13;1.47;;;;;;;;;;5024858;28;20767;-83
2022/05/22 13:13:47;;;;;;;2.27;1.30;;;;;;;;;;5025039;28;20497;-82
2022/05/22 13:16:13;;;;;;;2.40;1.10;;;;;;;;;;5024761;28;20456;-82
2022/05/22 13:18:48;;;;;;;2.53;1.23;;;;;;;;;;5024299;28;20427;-81
2022/05/22 13:21:29;;;;;;;2.27;1.20;;;;;;;;;;5024409;28;20414;-82
2022/05/22 13:24:03;;;;;;;5.20;1.30;;;;;;;;;;5025143;28;20402;-82
2022/05/22 13:26:30;;;;;;;6.97;1.83;;;;;;;;;;5025328;28;20411;-82
2022/05/22 13:29:22;;;;;;;3.33;1.17;;;;;;;;;;5024627;28;20427;-82
2022/05/22 13:31:50;;;;;;;3.80;1.37;;;;;;;;;;5021778;28;20421;-81
2022/05/22 13:34:23;;;;;;;2.47;1.10;;;;;;;;;;5024459;28;20523;-81
2022/05/22 13:37:03;;;;;;;1.67;1.10;;;;;;;;;;5007946;28;20438;-82
2022/05/22 13:39:41;;;;;;;2.57;1.43;;;;;;;;;;5024790;28;20400;-81
2022/05/22 13:42:25;;;;;;;3.70;1.53;;;;;;;;;;5028391;28;20446;-81
2022/05/22 13:45:03;;;;;;;2.23;1.20;;;;;;;;;;5026231;28;20415;-82
2022/05/22 13:47:36;;;;;;;3.10;1.30;;;;;;;;;;5025269;28;20415;-81
2022/05/22 13:53:18;;;;;;;3.47;1.60;;;;;;;;;;5024580;28;20401;-83
2022/05/22 13:55:46;;;;;;;2.17;1.23;;;;;;;;;;5027084;28;20414;-82
2022/05/22 13:58:18;;;;;;;2.27;1.20;;;;;;;;;;5010560;28;20439;-82
2022/05/22 14:00:46;;;;;;;2.37;1.17;;;;;;;;;;5028492;28;20407;-82
2022/05/22 14:03:15;;;;;;;2.53;1.33;;;;;;;;;;5028975;28;20508;-82
2022/05/22 14:05:44;;;;;;;3.40;1.40;;;;;;;;;;5028415;28;20422;-82
2022/05/22 14:08:13;;;;;;;2.77;1.20;;;;;;;;;;5028110;28;20950;-82
2022/05/22 14:10:40;;;;;;;2.10;1.10;;;;;;;;;;5028804;28;20449;-82
2022/05/22 14:13:12;;;;;;;2.00;1.10;;;;;;;;;;5028410;28;20408;-81
2022/05/22 14:15:38;;;;;;;1.90;1.10;;;;;;;;;;5027481;28;20403;-82
2022/05/22 14:18:19;;;;;;;3.13;1.33;;;;;;;;;;5028417;28;20482;-82
2022/05/22 14:20:46;;;;;;;2.63;1.30;;;;;;;;;;5028752;28;20384;-82
2022/05/22 14:23:12;;;;;;;2.20;1.10;;;;;;;;;;5028409;28;20430;-82
2022/05/22 14:25:40;;;;;;;3.03;1.60;;;;;;;;;;5027865;28;20399;-82
2022/05/22 14:28:07;;;;;;;3.10;1.17;;;;;;;;;;5028437;28;20940;-82
2022/05/22 14:30:44;;;;;;;2.30;1.17;;;;;;;;;;5006360;28;20426;-82
2022/05/22 14:33:16;;;;;;;2.33;1.07;;;;;;;;;;5022857;28;20417;-82
2022/05/22 14:35:51;;;;;;;2.43;1.20;;;;;;;;;;5023421;28;20407;-82
2022/05/22 14:38:25;;;;;;;2.60;1.40;;;;;;;;;;5005274;28;20792;-82
2022/05/22 14:40:51;;;;;;;2.27;1.20;;;;;;;;;;5022664;28;20411;-80
2022/05/22 14:43:19;;;;;;;5.73;1.50;;;;;;;;;;5023221;28;20400;-82
2022/05/22 14:45:49;;;;;;;4.33;1.63;;;;;;;;;;5023125;28;20494;-81
2022/05/22 14:48:18;;;;;;;3.63;1.30;;;;;;;;;;5005141;28;20488;-81
2022/05/22 14:50:49;;;;;;;2.07;1.10;;;;;;;;;;5024130;28;20935;-81
2022/05/22 14:53:19;;;;;;;1.80;1.27;;;;;;;;;;5023690;28;20438;-82
2022/05/22 14:55:47;;;;;;;2.40;1.03;;;;;;;;;;5023578;28;20531;-81
2022/05/22 14:58:25;;;;;;;2.00;1.20;;;;;;;;;;5022955;28;20850;-81
2022/05/22 15:00:53;;;;;;;1.93;1.00;;;;;;;;;;5024886;28;20454;-79
2022/05/22 15:03:24;;;;;;;2.50;1.13;;;;;;;;;;5022982;28;20410;-81
2022/05/22 15:05:52;;;;;;;2.47;1.30;;;;;;;;;;5043004;28;20460;-81
2022/05/22 15:08:21;;;;;;;2.30;1.10;;;;;;;;;;5043128;28;20417;-82
2022/05/22 15:10:48;;;;;;;4.07;1.37;;;;;;;;;;5043487;28;20399;-82
2022/05/22 15:13:22;;;;;;;1.80;1.00;;;;;;;;;;5024583;28;20490;-81
2022/05/22 15:15:48;;;;;;;2.47;1.57;;;;;;;;;;5043012;28;20382;-82
2022/05/22 15:18:20;;;;;;;1.93;1.03;;;;;;;;;;5041355;28;20469;-81